Time;durP1;ratioP1;P1;durP2;ratioP2;P2;SDS_P1;SDS_P2;PMS_P1;PMS_P2;Temp;Humidity;BMP_temperature;BMP_pressure;BME280_temperature;BME280_humidity;BME280_pressure;Samples;Min_cycle;Max_cycle;Signal;HPM_P1;HPM_P2
2023/01/07 00:01:31;;;;;;;55.78;30.60;;;204.80;2252.80;;;;;;5030267;28;20120;-88
2023/01/07 00:03:58;;;;;;;58.90;28.58;;;204.80;2252.80;;;;;;5035011;28;20485;-83
2023/01/07 00:06:30;;;;;;;55.13;28.75;;;204.80;2252.80;;;;;;5035924;28;20028;-81
2023/01/07 00:08:57;;;;;;;49.00;28.05;;;204.90;2252.80;;;;;;5029337;28;20040;-81
2023/01/07 00:11:34;;;;;;;52.40;29.50;;;205.20;2252.80;;;;;;5035176;28;20033;-81
2023/01/07 00:14:01;;;;;;;53.63;29.17;;;204.90;2252.80;;;;;;5035441;28;20044;-81
2023/01/07 00:16:29;;;;;;;50.00;29.60;;;204.80;2252.80;;;;;;5035113;28;20087;-82
2023/01/07 00:18:56;;;;;;;58.97;31.27;;;204.80;2252.80;;;;;;5035278;28;20506;-82
2023/01/07 00:21:23;;;;;;;62.95;32.55;;;204.80;2252.80;;;;;;5032092;28;20048;-81
2023/01/07 00:23:52;;;;;;;57.78;33.35;;;180.10;2252.80;;;;;;5052613;28;20037;-81
2023/01/07 00:26:21;;;;;;;60.58;32.85;;;180.00;2252.80;;;;;;5034226;28;20041;-82
2023/01/07 00:28:49;;;;;;;67.68;34.17;;;180.10;2252.80;;;;;;5034788;28;20036;-81
2023/01/07 00:31:16;;;;;;;65.97;36.50;;;180.00;2252.80;;;;;;5035598;28;20112;-81
2023/01/07 00:36:18;;;;;;;60.45;33.53;;;204.90;2252.80;;;;;;5052992;28;20028;-80
2023/01/07 00:38:44;;;;;;;72.15;37.42;;;205.10;2252.80;;;;;;5052679;28;20036;-81
2023/01/07 00:41:09;;;;;;;;;;;205.20;2252.80;;;;;;5035179;28;20041;-81
2023/01/07 00:43:35;;;;;;;65.20;35.67;;;205.10;2252.80;;;;;;5034422;28;19911;-82
2023/01/07 00:46:01;;;;;;;68.05;36.25;;;205.10;2252.80;;;;;;5035108;28;20026;-83
2023/01/07 00:48:26;;;;;;;;;;;204.90;2252.80;;;;;;5035219;28;20503;-81
2023/01/07 00:50:53;;;;;;;57.88;32.22;;;204.80;2252.80;;;;;;5034371;28;19915;-77
2023/01/07 00:53:20;;;;;;;61.97;33.22;;;180.10;2252.80;;;;;;5051986;28;20040;-78
2023/01/07 00:55:47;;;;;;;59.42;33.33;;;180.00;2252.80;;;;;;5034281;28;20461;-80
2023/01/07 00:58:20;;;;;;;58.67;31.63;;;179.90;2252.80;;;;;;5034114;28;20040;-79
2023/01/07 01:00:46;;;;;;;57.72;32.00;;;179.80;2252.80;;;;;;5050879;28;20036;-79
2023/01/07 01:03:12;;;;;;;59.85;32.35;;;179.70;2252.80;;;;;;5051648;28;20029;-79
2023/01/07 01:05:38;;;;;;;;;;;179.90;2252.80;;;;;;5034423;28;20025;-80
2023/01/07 01:08:04;;;;;;;56.75;31.60;;;179.80;2252.80;;;;;;5033224;28;19913;-80
2023/01/07 01:10:30;;;;;;;57.65;31.90;;;179.70;2252.80;;;;;;5029518;28;20040;-79
2023/01/07 01:12:56;;;;;;;;;;;179.80;2252.80;;;;;;5035275;28;20406;-79
2023/01/07 01:15:22;;;;;;;64.72;33.53;;;180.00;2252.80;;;;;;5037301;28;19908;-79
2023/01/07 01:17:49;;;;;;;;;;;179.90;2252.80;;;;;;5038611;28;20115;-80
2023/01/07 01:20:14;;;;;;;51.05;25.40;;;179.90;2252.80;;;;;;5037593;28;20255;-78
2023/01/07 01:22:40;;;;;;;;;;;179.70;2252.80;;;;;;5038050;28;20051;-79
2023/01/07 01:25:07;;;;;;;61.30;31.38;;;179.60;2252.80;;;;;;5037335;28;19915;-78
2023/01/07 01:27:33;;;;;;;69.10;34.92;;;179.50;2252.80;;;;;;5055043;28;20479;-78
2023/01/07 01:29:59;;;;;;;;;;;179.40;2252.80;;;;;;5035305;28;20039;-79
2023/01/07 01:32:25;;;;;;;61.25;33.65;;;179.40;2252.80;;;;;;5055406;28;20354;-79
2023/01/07 01:34:50;;;;;;;;;;;179.30;2252.80;;;;;;5055629;28;20382;-78
2023/01/07 01:37:16;;;;;;;65.63;35.15;;;179.30;2252.80;;;;;;5037942;28;19911;-80
2023/01/07 01:39:42;;;;;;;;;;;179.30;2252.80;;;;;;5037737;28;20398;-80
2023/01/07 01:42:23;;;;;;;67.47;34.60;;;179.30;2252.80;;;;;;5038353;28;19916;-82
2023/01/07 01:44:54;;;;;;;62.30;34.80;;;179.30;2252.80;;;;;;5055766;28;20074;-79
2023/01/07 01:47:32;;;;;;;74.75;36.90;;;179.20;2252.80;;;;;;5053384;28;20490;-79
2023/01/07 01:50:04;;;;;;;66.75;35.40;;;179.20;2252.80;;;;;;5038354;28;20057;-79
2023/01/07 01:52:36;;;;;;;65.70;35.40;;;179.20;2252.80;;;;;;5037258;28;20521;-79
2023/01/07 01:55:05;;;;;;;60.92;33.35;;;179.20;2252.80;;;;;;5043843;28;20418;-80
2023/01/07 01:57:33;;;;;;;73.25;38.83;;;154.50;2252.80;;;;;;5029212;28;20503;-79
2023/01/07 01:59:59;;;;;;;75.68;39.80;;;179.20;2252.80;;;;;;5031048;28;20124;-78
2023/01/07 02:02:32;;;;;;;73.28;38.30;;;179.40;2252.80;;;;;;5034583;28;20531;-80
2023/01/07 02:04:59;;;;;;;67.15;37.60;;;179.60;2252.80;;;;;;5030560;28;20060;-80
2023/01/07 02:07:24;;;;;;;71.55;37.95;;;179.50;2252.80;;;;;;5034381;28;20068;-80
2023/01/07 02:10:09;;;;;;;;;;;179.40;2252.80;;;;;;5033829;28;20045;-80
2023/01/07 02:12:49;;;;;;;70.85;35.33;;;179.40;2252.80;;;;;;5025074;28;19921;-79
2023/01/07 02:15:20;;;;;;;73.28;38.90;;;179.20;2252.80;;;;;;5034319;28;20033;-79
2023/01/07 02:18:31;;;;;;;63.83;36.25;;;179.20;2252.80;;;;;;5034218;28;20030;-80
2023/01/07 02:21:10;;;;;;;63.13;36.83;;;179.20;2252.80;;;;;;5034164;28;20034;-80
2023/01/07 02:23:54;;;;;;;68.28;37.55;;;179.20;2252.80;;;;;;5025891;28;20025;-78
2023/01/07 02:26:44;;;;;;;74.93;37.25;;;154.50;2252.80;;;;;;5034041;28;20037;-80
2023/01/07 02:29:43;;;;;;;76.47;38.45;;;179.20;2252.80;;;;;;5033763;28;20022;-79
2023/01/07 02:32:15;;;;;;;73.65;38.80;;;179.20;2252.80;;;;;;5007791;28;20029;-78
2023/01/07 02:34:49;;;;;;;78.50;38.78;;;179.30;2252.80;;;;;;5034026;28;20032;-80
2023/01/07 02:37:24;;;;;;;69.95;38.88;;;179.50;2252.80;;;;;;5033923;28;20024;-79
2023/01/07 02:40:06;;;;;;;69.55;38.70;;;179.60;2252.80;;;;;;5033271;28;20030;-78
2023/01/07 02:43:09;;;;;;;82.15;40.05;;;179.70;2252.80;;;;;;5030782;28;20026;-79
2023/01/07 02:45:47;;;;;;;80.32;41.33;;;179.60;2252.80;;;;;;5024411;28;20025;-78
2023/01/07 02:48:16;;;;;;;75.72;42.03;;;179.40;2252.80;;;;;;5033423;28;20025;-79
2023/01/07 02:50:42;;;;;;;72.05;42.20;;;179.40;2252.80;;;;;;5025324;28;20032;-79
2023/01/07 02:53:10;;;;;;;;;;;179.40;2252.80;;;;;;5033814;28;20033;-79
2023/01/07 02:55:54;;;;;;;73.10;40.28;;;179.40;2252.80;;;;;;5024886;28;19905;-79
2023/01/07 02:58:52;;;;;;;77.15;41.47;;;179.40;2252.80;;;;;;5031929;28;20483;-79
2023/01/07 03:02:02;;;;;;;77.22;41.97;;;179.30;2252.80;;;;;;4928874;29;20040;-79
2023/01/07 03:04:52;;;;;;;80.40;42.95;;;179.20;2252.80;;;;;;4936177;29;20046;-79
2023/01/07 03:07:51;;;;;;;73.82;41.33;;;154.50;2252.80;;;;;;4954321;29;20035;-78
2023/01/07 03:10:41;;;;;;;70.72;39.92;;;179.20;2252.80;;;;;;4936893;29;20414;-79
2023/01/07 03:13:15;;;;;;;74.30;42.97;;;179.30;2252.80;;;;;;4935916;29;20039;-79
2023/01/07 03:15:47;;;;;;;78.03;40.75;;;179.30;2252.80;;;;;;4953830;29;20024;-78
2023/01/07 03:18:27;;;;;;;77.32;39.83;;;179.40;2252.80;;;;;;4954250;29;20071;-79
2023/01/07 03:21:04;;;;;;;74.05;42.00;;;154.50;2252.80;;;;;;4951895;29;20082;-79
2023/01/07 03:23:29;;;;;;;;;;;154.30;2252.80;;;;;;4952661;29;20032;-79
2023/01/07 03:26:01;;;;;;;82.28;40.45;;;154.20;2252.80;;;;;;4937667;29;19906;-79
2023/01/07 03:28:36;;;;;;;77.40;43.65;;;154.20;2252.80;;;;;;4951279;29;20509;-79
2023/01/07 03:31:04;;;;;;;82.93;43.65;;;153.90;2252.80;;;;;;4937147;29;20031;-78
2023/01/07 03:33:44;;;;;;;74.93;41.42;;;154.00;2252.80;;;;;;4936945;29;20437;-79
2023/01/07 03:36:14;;;;;;;78.05;41.88;;;154.10;2252.80;;;;;;4948755;28;20033;-77
2023/01/07 03:38:42;;;;;;;84.72;42.22;;;154.00;2252.80;;;;;;5015413;28;20033;-77
2023/01/07 03:41:07;;;;;;;76.18;41.85;;;154.10;2252.80;;;;;;5015357;28;20410;-79
2023/01/07 03:43:33;;;;;;;;;;;154.10;2252.80;;;;;;5016009;28;20116;-80
2023/01/07 03:45:59;;;;;;;83.72;41.03;;;154.10;2252.80;;;;;;5015566;28;19958;-80
2023/01/07 03:48:25;;;;;;;74.40;40.58;;;154.20;2252.80;;;;;;5015496;28;20540;-78
2023/01/07 03:50:50;;;;;;;;;;;154.10;2252.80;;;;;;5015882;28;20030;-78
2023/01/07 03:53:16;;;;;;;87.65;42.65;;;154.00;2252.80;;;;;;5015415;28;19935;-77
2023/01/07 03:55:42;;;;;;;;;;;154.00;2252.80;;;;;;5015857;28;20041;-78
2023/01/07 03:58:07;;;;;;;74.63;38.90;;;153.80;2252.80;;;;;;5033310;28;19951;-79
2023/01/07 04:00:33;;;;;;;;;;;153.80;2252.80;;;;;;5033509;28;20014;-81
2023/01/07 04:02:59;;;;;;;67.20;38.92;;;153.80;2252.80;;;;;;5014940;28;19909;-77
2023/01/07 04:05:24;;;;;;;;;;;153.80;2252.80;;;;;;5016077;28;20026;-81
2023/01/07 04:07:50;;;;;;;73.20;36.30;;;153.60;2252.80;;;;;;5014914;28;19937;-77
2023/01/07 04:10:15;;;;;;;;;;;153.70;2252.80;;;;;;5015858;28;20036;-81
2023/01/07 04:12:41;;;;;;;74.72;37.53;;;153.60;2252.80;;;;;;5015262;28;20329;-80
2023/01/07 04:15:07;;;;;;;;;;;153.70;2252.80;;;;;;5015628;28;20056;-78
2023/01/07 04:17:33;;;;;;;73.32;36.35;;;153.70;2252.80;;;;;;5015098;28;19912;-78
2023/01/07 04:19:58;;;;;;;;;;;153.90;2252.80;;;;;;5015892;28;20076;-87
2023/01/07 04:22:24;;;;;;;65.88;36.63;;;153.80;2252.80;;;;;;5033078;28;20402;-78
2023/01/07 04:24:49;;;;;;;;;;;153.80;2252.80;;;;;;5015234;28;20026;-78
2023/01/07 04:27:15;;;;;;;71.57;35.17;;;153.80;2252.80;;;;;;5033105;28;19937;-85
2023/01/07 04:29:41;;;;;;;;;;;153.70;2252.80;;;;;;5015765;28;20034;-80
2023/01/07 04:32:06;;;;;;;75.45;38.65;;;153.80;2252.80;;;;;;5014975;28;20355;-79
2023/01/07 04:34:32;;;;;;;;;;;153.80;2252.80;;;;;;5015496;28;20029;-78
2023/01/07 04:36:58;;;;;;;60.92;33.67;;;153.90;2252.80;;;;;;5014990;28;19928;-80
2023/01/07 04:39:23;;;;;;;;;;;153.90;2252.80;;;;;;5032742;28;20053;-78
2023/01/07 04:41:49;;;;;;;61.92;32.70;;;154.00;2252.80;;;;;;5014890;28;19917;-79
2023/01/07 04:44:16;;;;;;;;;;;154.00;2252.80;;;;;;5015435;28;20475;-78
2023/01/07 04:46:42;;;;;;;50.05;25.75;;;153.90;2252.80;;;;;;5015194;28;19982;-78
2023/01/07 04:49:08;;;;;;;56.28;32.35;;;153.90;2252.80;;;;;;5018367;28;20069;-81
2023/01/07 04:51:34;;;;;;;;;;;153.90;2252.80;;;;;;5019182;28;20099;-79
2023/01/07 04:54:00;;;;;;;59.15;31.40;;;153.90;2252.80;;;;;;5018793;28;19913;-78
2023/01/07 04:56:25;;;;;;;;;;;153.90;2252.80;;;;;;5009990;28;20042;-78
2023/01/07 04:58:51;;;;;;;59.60;31.35;;;153.90;2252.80;;;;;;4999231;28;19964;-89
2023/01/07 05:01:17;;;;;;;;;;;153.90;2252.80;;;;;;4999359;28;20379;-78
2023/01/07 05:03:42;;;;;;;63.63;31.83;;;153.80;2252.80;;;;;;4998243;28;20355;-78
2023/01/07 05:06:08;;;;;;;;;;;153.80;2252.80;;;;;;5016861;28;20256;-80
2023/01/07 05:08:34;;;;;;;64.03;31.50;;;153.90;2252.80;;;;;;5015802;28;19909;-78
2023/01/07 05:11:01;;;;;;;;;;;153.80;2252.80;;;;;;4999030;28;20537;-81
2023/01/07 05:13:27;;;;;;;58.63;29.67;;;154.00;2252.80;;;;;;4998674;28;19920;-81
2023/01/07 05:15:52;;;;;;;57.97;30.58;;;153.90;2252.80;;;;;;4997865;28;20042;-78
2023/01/07 05:18:18;;;;;;;;;;;153.90;2252.80;;;;;;4999024;28;20118;-78
2023/01/07 05:20:46;;;;;;;63.72;31.05;;;154.00;2252.80;;;;;;5016127;28;19937;-77
2023/01/07 05:23:12;;;;;;;57.08;31.58;;;153.80;2252.80;;;;;;4998604;28;20476;-78
2023/01/07 05:25:37;;;;;;;;;;;153.90;2252.80;;;;;;4998767;28;20033;-78
2023/01/07 05:28:03;;;;;;;59.10;28.90;;;153.80;2252.80;;;;;;4998708;28;19913;-78
2023/01/07 05:30:29;;;;;;;;;;;153.80;2252.80;;;;;;4999291;28;20038;-79
2023/01/07 05:32:54;;;;;;;52.05;27.02;;;153.90;2252.80;;;;;;4999113;28;20283;-82
2023/01/07 05:35:20;;;;;;;;;;;153.90;2252.80;;;;;;5016871;28;20022;-80
2023/01/07 05:37:46;;;;;;;50.65;26.02;;;153.90;2252.80;;;;;;4998997;28;19905;-82
2023/01/07 05:40:11;;;;;;;;;;;153.70;2252.80;;;;;;4999062;28;20097;-78
2023/01/07 05:42:37;;;;;;;56.90;28.05;;;153.80;2252.80;;;;;;4998677;28;20394;-82
2023/01/07 05:45:03;;;;;;;;;;;153.80;2252.80;;;;;;5015297;28;20050;-80
2023/01/07 05:47:29;;;;;;;51.10;25.73;;;153.80;2252.80;;;;;;4998970;28;19909;-78
2023/01/07 05:49:54;;;;;;;;;;;153.90;2252.80;;;;;;4999070;28;20026;-77
2023/01/07 05:52:20;;;;;;;49.28;26.83;;;153.90;2252.80;;;;;;4998792;28;19960;-78
2023/01/07 05:54:46;;;;;;;;;;;153.80;2252.80;;;;;;4998587;28;20034;-86
2023/01/07 05:57:11;;;;;;;47.78;25.70;;;153.70;2252.80;;;;;;5013250;28;20362;-86
2023/01/07 05:59:37;;;;;;;;;;;153.80;2252.80;;;;;;5017735;28;21265;-86
2023/01/07 06:02:04;;;;;;;49.25;26.35;;;153.60;2252.80;;;;;;5018058;28;19951;-78
2023/01/07 06:04:30;;;;;;;50.83;27.02;;;153.60;2252.80;;;;;;5017633;28;20383;-77
2023/01/07 06:06:56;;;;;;;;;;;153.60;2252.80;;;;;;5018461;28;20026;-85
2023/01/07 06:09:22;;;;;;;51.80;26.70;;;153.60;2252.80;;;;;;5017329;28;19917;-77
2023/01/07 06:11:47;;;;;;;;;;;128.90;2252.80;;;;;;5035988;28;20032;-76
2023/01/07 06:14:13;;;;;;;50.97;25.27;;;153.60;2252.80;;;;;;5035172;28;19913;-78
2023/01/07 06:16:39;;;;;;;47.90;25.77;;;153.80;2252.80;;;;;;5017993;28;20075;-80
2023/01/07 06:19:05;;;;;;;48.67;25.08;;;153.70;2252.80;;;;;;5017428;28;20498;-82
2023/01/07 06:21:31;;;;;;;;;;;153.70;2252.80;;;;;;5018271;28;20029;-77
2023/01/07 06:23:56;;;;;;;47.85;25.23;;;153.70;2252.80;;;;;;5017356;28;20439;-82
2023/01/07 06:26:22;;;;;;;;;;;128.90;2252.80;;;;;;5017584;28;20528;-79
2023/01/07 06:28:50;;;;;;;53.08;24.80;;;153.60;2252.80;;;;;;5035176;28;19905;-78
2023/01/07 06:31:16;;;;;;;51.55;25.88;;;128.90;2252.80;;;;;;5017346;28;20021;-79
2023/01/07 06:33:41;;;;;;;;;;;128.90;2252.80;;;;;;5017531;28;20372;-80
2023/01/07 06:36:07;;;;;;;45.53;23.13;;;128.80;2252.80;;;;;;5017144;28;20358;-82
2023/01/07 06:38:33;;;;;;;;;;;128.80;2252.80;;;;;;5017730;28;20049;-78
2023/01/07 06:41:01;;;;;;;51.50;26.60;;;128.90;2252.80;;;;;;5017093;28;20386;-79
2023/01/07 06:43:27;;;;;;;47.92;25.33;;;153.60;2252.80;;;;;;5017179;28;20025;-79
2023/01/07 06:45:52;;;;;;;;;;;153.70;2252.80;;;;;;5034804;28;20487;-82
2023/01/07 06:48:18;;;;;;;46.83;24.77;;;153.70;2252.80;;;;;;5017210;28;19951;-78
2023/01/07 06:50:44;;;;;;;;;;;153.70;2252.80;;;;;;5016719;28;20090;-78
2023/01/07 06:53:09;;;;;;;62.83;29.20;;;153.80;2252.80;;;;;;5033525;28;20271;-79
2023/01/07 06:55:35;;;;;;;;;;;153.80;2252.80;;;;;;5009222;28;20181;-78
2023/01/07 06:58:01;;;;;;;53.70;26.25;;;153.90;2252.80;;;;;;5015267;28;19913;-78
2023/01/07 07:00:27;;;;;;;;;;;153.80;2252.80;;;;;;5015027;28;20130;-78
2023/01/07 07:02:53;;;;;;;58.03;27.02;;;153.80;2252.80;;;;;;5022915;28;20004;-84
2023/01/07 07:05:19;;;;;;;;;;;153.90;2252.80;;;;;;5016937;28;20118;-82
2023/01/07 07:07:44;;;;;;;52.30;25.05;;;153.80;2252.80;;;;;;5016870;28;19909;-81
2023/01/07 07:10:10;;;;;;;;;;;153.80;2252.80;;;;;;5033503;28;20112;-79
2023/01/07 07:12:36;;;;;;;55.25;26.80;;;153.90;2252.80;;;;;;5033230;28;19921;-81
2023/01/07 07:15:06;;;;;;;49.67;26.23;;;153.90;2252.80;;;;;;5015945;28;20037;-79
2023/01/07 07:17:32;;;;;;;52.78;25.73;;;154.00;2252.80;;;;;;5016271;28;20030;-84
2023/01/07 07:19:57;;;;;;;;;;;154.10;2252.80;;;;;;5016866;28;20027;-82
2023/01/07 07:22:23;;;;;;;52.05;27.23;;;154.20;2252.80;;;;;;5015742;28;19952;-82
2023/01/07 07:24:49;;;;;;;;;;;154.10;2252.80;;;;;;5016356;28;20036;-80
2023/01/07 07:27:14;;;;;;;53.33;25.13;;;154.20;2252.80;;;;;;5016124;28;19956;-83
2023/01/07 07:29:40;;;;;;;;;;;154.10;2252.80;;;;;;5016346;28;20028;-85
2023/01/07 07:32:06;;;;;;;51.88;26.55;;;154.10;2252.80;;;;;;5015788;28;19909;-80
2023/01/07 07:34:31;;;;;;;;;;;154.20;2252.80;;;;;;5034111;28;20029;-83
2023/01/07 07:36:57;;;;;;;49.58;26.58;;;154.30;2252.80;;;;;;5015879;28;20027;-78
2023/01/07 07:39:22;;;;;;;;;;;154.40;2252.80;;;;;;5016338;28;20038;-85
2023/01/07 07:41:48;;;;;;;55.45;27.05;;;154.50;2252.80;;;;;;5033301;28;20459;-91
2023/01/07 07:44:14;;;;;;;;;;;179.30;2252.80;;;;;;5018302;28;20026;-82
2023/01/07 07:46:39;;;;;;;60.63;30.52;;;179.40;2252.80;;;;;;5015777;28;19913;-83
2023/01/07 07:49:05;;;;;;;;;;;179.60;2252.80;;;;;;5033855;28;20499;-84
2023/01/07 07:51:31;;;;;;;59.80;29.55;;;179.70;2252.80;;;;;;5016129;28;19960;-79
2023/01/07 07:53:57;;;;;;;51.53;26.63;;;179.80;2252.80;;;;;;5010006;28;20117;-84
2023/01/07 07:56:23;;;;;;;;;;;179.80;2252.80;;;;;;5032997;28;20124;-78
2023/01/07 07:58:48;;;;;;;50.67;26.10;;;180.00;2252.80;;;;;;5015568;28;20020;-82
2023/01/07 08:01:14;;;;;;;;;;;180.00;2252.80;;;;;;5013112;28;20040;-78
2023/01/07 08:03:40;;;;;;;46.63;25.02;;;180.10;2252.80;;;;;;5026686;28;19913;-79
2023/01/07 08:06:05;;;;;;;;;;;180.10;2252.80;;;;;;5016154;28;20028;-80
2023/01/07 08:08:31;;;;;;;48.15;26.15;;;180.10;2252.80;;;;;;5032967;28;19917;-82
2023/01/07 08:10:57;;;;;;;;;;;180.00;2252.80;;;;;;5015408;28;20071;-81
2023/01/07 08:13:23;;;;;;;46.55;25.17;;;180.00;2252.80;;;;;;5014734;28;19925;-77
2023/01/07 08:15:49;;;;;;;50.85;26.02;;;180.00;2252.80;;;;;;5032306;28;20026;-80
2023/01/07 08:18:14;;;;;;;;;;;180.00;2252.80;;;;;;5009069;28;20513;-80
2023/01/07 08:20:40;;;;;;;52.60;27.65;;;180.00;2252.80;;;;;;5015241;28;19909;-79
2023/01/07 08:23:06;;;;;;;;;;;179.90;2252.80;;;;;;5018368;28;20032;-81
2023/01/07 08:25:33;;;;;;;57.78;27.35;;;180.10;2252.80;;;;;;5039695;28;19916;-87
2023/01/07 08:28:00;;;;;;;47.55;25.58;;;180.00;2252.80;;;;;;5007864;28;20069;-82
2023/01/07 08:30:26;;;;;;;46.22;26.13;;;180.10;2252.80;;;;;;5010842;28;20040;-85
2023/01/07 08:32:53;;;;;;;48.58;28.58;;;204.90;2252.80;;;;;;5018948;28;20071;-86
2023/01/07 08:35:19;;;;;;;49.92;26.77;;;205.10;2252.80;;;;;;5037637;28;20113;-79
2023/01/07 08:37:44;;;;;;;;;;;205.00;2252.80;;;;;;5019926;28;20119;-80
2023/01/07 08:40:11;;;;;;;45.83;25.00;;;205.00;2252.80;;;;;;5018996;28;20425;-81
2023/01/07 08:42:38;;;;;;;45.95;25.08;;;205.00;2252.80;;;;;;5018236;28;20029;-79
2023/01/07 08:45:05;;;;;;;53.20;28.15;;;204.90;2252.80;;;;;;5018760;28;20029;-81
2023/01/07 08:47:31;;;;;;;50.35;27.17;;;205.00;2252.80;;;;;;5018248;28;20021;-81
2023/01/07 08:49:56;;;;;;;;;;;205.10;2252.80;;;;;;5018946;28;20033;-89
2023/01/07 08:52:23;;;;;;;41.33;25.25;;;205.10;2252.80;;;;;;5017795;28;19938;-79
2023/01/07 08:54:49;;;;;;;51.13;25.98;;;205.20;2252.80;;;;;;5017872;28;20168;-79
2023/01/07 08:57:16;;;;;;;43.97;27.00;;;205.30;2252.80;;;;;;5010246;28;20053;-80
2023/01/07 08:59:42;;;;;;;41.55;24.02;;;205.40;2252.80;;;;;;5018145;28;20087;-82
2023/01/07 09:02:15;;;;;;;;;;;205.40;2252.80;;;;;;5018135;28;20045;-79
2023/01/07 09:04:40;;;;;;;41.55;23.77;;;205.40;2252.80;;;;;;5032010;28;20430;-79
2023/01/07 09:07:06;;;;;;;38.13;23.20;;;205.40;2252.80;;;;;;5015245;28;20171;-84
2023/01/07 09:09:32;;;;;;;49.78;25.90;;;205.50;2252.80;;;;;;5017703;28;20041;-79
2023/01/07 09:11:59;;;;;;;44.35;25.13;;;205.60;2252.80;;;;;;5035761;28;20465;-81
2023/01/07 09:14:24;;;;;;;;;;;205.70;2252.80;;;;;;5035975;28;20029;-84
2023/01/07 09:16:50;;;;;;;51.33;25.48;;;230.50;2252.80;;;;;;5016845;28;19916;-80
2023/01/07 09:19:16;;;;;;;;;;;230.60;2252.80;;;;;;5018350;28;20030;-79
2023/01/07 09:21:41;;;;;;;42.00;22.77;;;230.80;2252.80;;;;;;5017175;28;20294;-79
2023/01/07 09:24:07;;;;;;;;;;;230.80;2252.80;;;;;;5035378;28;20048;-79
2023/01/07 09:26:33;;;;;;;37.17;20.90;;;230.80;2252.80;;;;;;5016613;28;19909;-78
2023/01/07 09:28:58;;;;;;;;;;;230.90;2252.80;;;;;;5034313;28;20240;-82
2023/01/07 09:31:24;;;;;;;35.30;19.75;;;231.00;2252.80;;;;;;5030743;28;19911;-79
2023/01/07 09:33:50;;;;;;;;;;;231.10;2252.80;;;;;;5015912;28;20040;-77
2023/01/07 09:36:15;;;;;;;36.85;19.85;;;231.20;2252.80;;;;;;5034040;28;19908;-76
2023/01/07 09:38:41;;;;;;;;;;;256.00;2252.80;;;;;;5034705;28;20033;-77
2023/01/07 09:41:32;;;;;;;40.15;21.27;;;256.20;2252.80;;;;;;5020826;28;19917;-79
2023/01/07 09:44:21;;;;;;;40.25;20.25;;;256.50;2252.80;;;;;;5034690;28;20396;-79
2023/01/07 09:46:48;;;;;;;34.58;19.58;;;256.70;2252.80;;;;;;5032701;28;20028;-76
2023/01/07 09:49:18;;;;;;;38.22;21.42;;;256.90;2252.80;;;;;;5007974;28;20083;-76
2023/01/07 09:52:01;;;;;;;35.45;21.38;;;281.60;2278.40;;;;;;5033975;28;20032;-77
2023/01/07 09:54:31;;;;;;;40.80;23.92;;;281.80;2278.40;;;;;;5015449;28;20446;-78
2023/01/07 09:56:57;;;;;;;35.72;19.05;;;281.90;2278.40;;;;;;5011611;28;20108;-78
2023/01/07 09:59:23;;;;;;;41.78;21.23;;;282.00;2278.40;;;;;;5034685;28;20033;-79
2023/01/07 10:02:03;;;;;;;;;;;282.20;2278.40;;;;;;5035210;28;20112;-77
2023/01/07 10:05:01;;;;;;;45.47;20.60;;;282.50;2278.40;;;;;;5034583;28;19917;-78
2023/01/07 10:07:32;;;;;;;37.90;21.55;;;307.40;2304.00;;;;;;5017207;28;20087;-80
2023/01/07 10:10:17;;;;;;;39.08;24.25;;;307.60;2304.00;;;;;;5034462;28;20478;-79
2023/01/07 10:13:10;;;;;;;33.55;19.85;;;307.80;2304.00;;;;;;5015392;28;20518;-84
2023/01/07 10:16:17;;;;;;;34.67;20.20;;;308.10;2304.00;;;;;;5024218;28;20120;-85
2023/01/07 10:19:10;;;;;;;36.23;20.87;;;333.10;2329.60;;;;;;5012514;28;20088;-81
2023/01/07 10:21:53;;;;;;;30.92;19.10;;;333.40;2329.60;;;;;;5017527;28;20306;-81
2023/01/07 10:24:27;;;;;;;38.95;20.65;;;333.50;2329.60;;;;;;5038902;28;20393;-79
2023/01/07 10:26:56;;;;;;;32.65;19.17;;;333.70;2329.60;;;;;;5030712;28;20021;-81
2023/01/07 10:29:31;;;;;;;31.73;19.80;;;333.70;2329.60;;;;;;5039310;28;20029;-81
2023/01/07 10:32:04;;;;;;;33.97;20.08;;;358.50;2329.60;;;;;;5009815;28;20116;-83
2023/01/07 10:34:36;;;;;;;33.70;20.00;;;358.80;2304.00;;;;;;5012872;28;20076;-80
2023/01/07 10:37:06;;;;;;;29.20;18.05;;;358.90;2329.60;;;;;;5013080;28;20116;-81
2023/01/07 10:39:39;;;;;;;28.85;19.10;;;359.00;2201.60;;;;;;5014880;28;20034;-81
2023/01/07 10:42:28;;;;;;;30.40;20.27;;;358.80;2329.60;;;;;;5016372;28;20049;-80
2023/01/07 10:45:11;;;;;;;40.95;21.95;;;359.00;2278.40;;;;;;5005195;28;20032;-81
2023/01/07 10:47:42;;;;;;;31.00;18.17;;;359.20;2201.60;;;;;;5016106;28;20026;-81
2023/01/07 10:50:37;;;;;;;29.13;19.83;;;359.20;2201.60;;;;;;5015643;28;20025;-80
2023/01/07 10:53:41;;;;;;;30.75;18.52;;;359.30;2227.20;;;;;;5029311;28;20041;-85
2023/01/07 10:56:19;;;;;;;34.55;19.95;;;359.20;2201.60;;;;;;5008453;28;20040;-78
2023/01/07 10:58:47;;;;;;;34.40;19.75;;;384.10;2227.20;;;;;;5026367;28;20364;-81
2023/01/07 11:01:38;;;;;;;31.50;17.52;;;384.00;2201.60;;;;;;5018527;28;20064;-86
2023/01/07 11:04:11;;;;;;;29.92;19.13;;;359.20;2201.60;;;;;;5016203;28;20021;-89
2023/01/07 11:06:45;;;;;;;40.50;19.08;;;359.00;2227.20;;;;;;5041279;28;20028;-88
2023/01/07 11:09:19;;;;;;;31.75;18.83;;;359.30;2304.00;;;;;;5037742;28;20029;-83
2023/01/07 11:11:46;;;;;;;34.72;20.15;;;384.00;2201.60;;;;;;5015963;28;20029;-81
2023/01/07 11:14:19;;;;;;;33.35;20.27;;;359.30;2227.20;;;;;;5011507;28;20574;-80
2023/01/07 11:16:51;;;;;;;34.08;21.10;;;384.00;2252.80;;;;;;5015265;28;20038;-83
2023/01/07 11:19:17;;;;;;;29.40;19.05;;;384.10;2176.00;;;;;;5029337;28;20029;-90
2023/01/07 11:21:47;;;;;;;35.28;19.10;;;384.10;2201.60;;;;;;5014907;28;20132;-82
2023/01/07 11:24:29;;;;;;;41.45;22.65;;;384.20;2176.00;;;;;;4998674;28;20100;-86
2023/01/07 11:27:16;;;;;;;31.65;19.90;;;384.50;2073.60;;;;;;5027098;28;20491;-81
2023/01/07 11:29:44;;;;;;;30.92;18.95;;;384.40;2073.60;;;;;;5008617;28;20029;-85
2023/01/07 11:32:37;;;;;;;29.15;17.13;;;384.40;2099.20;;;;;;5005320;28;20057;-80
2023/01/07 11:35:15;;;;;;;27.55;16.00;;;384.30;2048.00;;;;;;5005708;28;20091;-79
2023/01/07 11:37:45;;;;;;;30.90;17.55;;;384.10;2048.00;;;;;;5015355;28;20483;-79
2023/01/07 11:40:13;;;;;;;37.88;21.48;;;384.30;2022.40;;;;;;5011423;28;20100;-79
2023/01/07 11:43:19;;;;;;;30.15;16.58;;;384.40;2022.40;;;;;;5040064;28;20399;-82
2023/01/07 11:45:58;;;;;;;26.42;16.13;;;384.40;1996.80;;;;;;5002862;28;20120;-84
2023/01/07 11:48:41;;;;;;;28.88;17.65;;;384.40;2022.40;;;;;;5019268;28;20124;-83
2023/01/07 11:51:09;;;;;;;31.65;17.60;;;384.20;2073.60;;;;;;5012239;28;20033;-77
2023/01/07 11:53:44;;;;;;;30.73;18.65;;;384.00;2150.40;;;;;;5013426;28;20041;-78
2023/01/07 11:56:32;;;;;;;29.77;18.08;;;384.00;2099.20;;;;;;5022503;28;20049;-84
2023/01/07 11:59:18;;;;;;;31.08;19.33;;;384.00;2124.80;;;;;;5032748;28;20021;-82
2023/01/07 12:01:48;;;;;;;32.65;20.00;;;384.00;2201.60;;;;;;5017660;28;20053;-79
2023/01/07 12:04:35;;;;;;;40.08;19.55;;;359.20;2201.60;;;;;;5018432;28;20040;-79
2023/01/07 12:07:05;;;;;;;31.58;19.05;;;359.20;2227.20;;;;;;4924546;29;20036;-85
2023/01/07 12:09:33;;;;;;;31.77;20.60;;;359.20;2176.00;;;;;;4933689;28;20536;-82
2023/01/07 12:12:30;;;;;;;31.90;20.60;;;359.10;2201.60;;;;;;4929664;29;20049;-80
2023/01/07 12:14:53;;;;;;;29.80;18.50;;;359.10;2227.20;;;;;;4951051;29;20090;-82
2023/01/07 12:17:22;;;;;;;30.38;18.45;;;359.00;2278.40;;;;;;4947950;28;20118;-79
2023/01/07 12:20:05;;;;;;;30.50;17.85;;;359.00;2304.00;;;;;;4939699;29;20122;-81
2023/01/07 12:23:00;;;;;;;31.67;18.30;;;358.70;2329.60;;;;;;4949599;29;20035;-79
2023/01/07 12:25:41;;;;;;;32.38;19.02;;;358.80;2329.60;;;;;;4958350;28;20032;-78
2023/01/07 12:28:18;;;;;;;30.05;18.52;;;358.70;2329.60;;;;;;4957770;28;20130;-79
2023/01/07 12:31:12;;;;;;;32.83;18.00;;;358.80;2329.60;;;;;;4937454;29;20042;-79
2023/01/07 12:34:21;;;;;;;30.88;18.48;;;358.80;2329.60;;;;;;4939617;29;20352;-77
2023/01/07 12:37:11;;;;;;;26.42;16.98;;;358.70;2329.60;;;;;;4933866;29;20512;-76
2023/01/07 12:39:44;;;;;;;33.70;19.23;;;358.70;2329.60;;;;;;4938963;29;20485;-76
2023/01/07 12:42:15;;;;;;;33.45;19.20;;;358.70;2329.60;;;;;;4921090;29;20063;-76